Cordell Hull Observed Data For Previous 48 Hours

Caption
Day and Hour Reservoir Elevation (behind dam)* Tailwater Elevation (below dam)* Average Hourly Discharge*
3/22/2019 1 AM CDT 500.13 464.93 43,135
3/22/2019 2 AM CDT 500.16 464.96 43,305
3/22/2019 3 AM CDT 500.13 464.83 43,170
3/22/2019 4 AM CDT 500.13 464.83 43,555
3/22/2019 5 AM CDT 500.13 464.83 42,630
3/22/2019 6 AM CDT 500.14 464.74 43,035
3/22/2019 7 AM CDT 500.13 464.73 43,935
3/22/2019 8 AM CDT 500.12 464.72 43,035
3/22/2019 9 AM CDT 500.13 464.73 43,415
3/22/2019 10 AM CDT 500.09 464.69 43,555
3/22/2019 11 AM CDT 500.08 464.78 42,630
3/22/2019 12 PM CDT 500.08 464.68 43,035
3/22/2019 1 PM CDT 500.06 464.66 43,415
3/22/2019 2 PM CDT 500.06 464.66 43,035
3/22/2019 3 PM CDT 500.02 464.62 43,180
3/22/2019 4 PM CDT 500.02 464.62 43,180
3/22/2019 5 PM CDT 499.99 464.59 43,560
3/22/2019 6 PM CDT 500.00 464.60 43,180
3/22/2019 7 PM CDT 499.99 464.49 43,545
3/22/2019 8 PM CDT 499.99 464.49 42,920
3/22/2019 9 PM CDT 499.98 464.38 42,910
3/22/2019 10 PM CDT 499.97 464.37 43,760
3/22/2019 11 PM CDT 499.94 464.34 44,215
3/23/2019 12 AM CDT 499.94 464.24 43,595
3/23/2019 1 AM CDT 499.93 464.33 42,905
3/23/2019 2 AM CDT 499.91 464.21 44,065
3/23/2019 3 AM CDT 499.92 464.22 43,135
3/23/2019 4 AM CDT 499.90 464.10 43,435
3/23/2019 5 AM CDT 499.87 464.07 43,435
3/23/2019 6 AM CDT 499.86 464.16 43,595
3/23/2019 7 AM CDT 499.85 464.15 43,240
3/23/2019 8 AM CDT 499.81 464.01 43,435
3/23/2019 9 AM CDT 499.77 464.07 43,230
3/23/2019 10 AM CDT 499.76 464.06 43,135
3/23/2019 11 AM CDT 499.75 464.05 44,065
3/23/2019 12 PM CDT 499.81 463.61 39,810
3/23/2019 1 PM CDT 499.80 463.50 40,165
3/23/2019 2 PM CDT 499.81 463.41 40,450
3/23/2019 3 PM CDT 499.85 463.35 39,465
3/23/2019 4 PM CDT 499.83 463.23 40,180
3/23/2019 5 PM CDT 499.85 463.25 40,240
3/23/2019 6 PM CDT 499.85 463.25 40,180
3/23/2019 7 PM CDT 499.85 463.15 39,665
3/23/2019 8 PM CDT 499.85 463.15 40,045
3/23/2019 9 PM CDT 499.85 463.15 40,545
3/23/2019 10 PM CDT 499.85 463.15 40,545
3/23/2019 11 PM CDT 499.85 463.15 41,545
3/24/2019 12 AM CDT 499.84 463.04 40,410

Elevations are in feet above sea level. Discharges are in cubic feet per second and are reported at the end of the hour.